createdAt,value
2019-03-13T00:01:04.224Z,2.17
2019-03-13T00:03:52.140Z,2.18
2019-03-13T00:06:40.596Z,2.36
2019-03-13T00:09:30.063Z,2.47
2019-03-13T00:12:17.668Z,2.49
2019-03-13T00:15:05.888Z,2.59
2019-03-13T00:17:54.003Z,2.55
2019-03-13T00:20:42.437Z,2.41
2019-03-13T00:23:30.666Z,2.38
2019-03-13T00:26:18.724Z,2.38
2019-03-13T00:29:07.148Z,2.36
2019-03-13T00:31:55.590Z,2.14
2019-03-13T00:34:44.366Z,2.05
2019-03-13T00:37:32.484Z,1.98
2019-03-13T00:40:20.862Z,2.02
2019-03-13T00:43:08.940Z,2.08
2019-03-13T00:45:57.515Z,1.82
2019-03-13T00:48:45.142Z,1.73
2019-03-13T00:51:36.731Z,1.83
2019-03-13T00:54:22.803Z,1.79
2019-03-13T00:57:10.939Z,1.83
2019-03-13T00:59:59.108Z,1.90
2019-03-13T01:02:47.237Z,1.97
2019-03-13T01:05:43.001Z,1.81
2019-03-13T01:08:31.491Z,2.07
2019-03-13T01:11:20.922Z,2.17
2019-03-13T01:14:08.915Z,2.18
2019-03-13T01:16:56.732Z,2.18
2019-03-13T01:19:44.480Z,2.07
2019-03-13T01:22:32.836Z,2.05
2019-03-13T01:25:20.318Z,1.86
2019-03-13T01:28:09.047Z,1.81
2019-03-13T01:31:05.744Z,1.89
2019-03-13T01:33:55.232Z,2.09
2019-03-13T01:36:43.285Z,1.99
2019-03-13T01:39:31.601Z,1.72
2019-03-13T01:42:19.358Z,1.64
2019-03-13T01:45:07.745Z,1.70
2019-03-13T01:47:56.315Z,1.79
2019-03-13T01:50:44.688Z,1.63
2019-03-13T01:53:32.409Z,1.70
2019-03-13T01:56:20.828Z,1.91
2019-03-13T01:59:08.816Z,1.80
2019-03-13T02:01:57.043Z,1.74
2019-03-13T02:04:45.426Z,1.86
2019-03-13T02:07:33.823Z,1.62
2019-03-13T02:10:22.189Z,1.67
2019-03-13T02:13:11.455Z,1.88
2019-03-13T02:15:59.576Z,1.89
2019-03-13T02:18:47.623Z,1.78
2019-03-13T02:21:35.985Z,1.85
2019-03-13T02:24:24.406Z,1.85
2019-03-13T02:27:12.530Z,1.82
2019-03-13T02:30:00.969Z,1.84
2019-03-13T02:32:48.876Z,1.94
2019-03-13T02:35:37.255Z,1.90
2019-03-13T02:38:25.833Z,1.83
2019-03-13T02:41:13.883Z,1.68
2019-03-13T02:44:02.285Z,1.77
2019-03-13T02:46:50.178Z,1.78
2019-03-13T02:49:38.168Z,1.82
2019-03-13T02:52:26.123Z,1.86
2019-03-13T02:55:14.581Z,1.67
2019-03-13T02:58:02.305Z,1.74
2019-03-13T03:01:21.398Z,1.72
2019-03-13T03:04:10.716Z,1.78
2019-03-13T03:06:58.454Z,1.64
2019-03-13T03:09:46.331Z,1.64
2019-03-13T03:12:34.352Z,1.70
2019-03-13T03:15:23.896Z,1.82
2019-03-13T03:18:12.467Z,1.84
2019-03-13T03:20:59.979Z,1.88
2019-03-13T03:23:48.442Z,1.95
2019-03-13T03:26:36.755Z,2.02
2019-03-13T03:29:25.198Z,1.72
2019-03-13T03:32:13.676Z,1.82
2019-03-13T03:35:01.947Z,1.72
2019-03-13T03:37:49.556Z,1.85
2019-03-13T03:40:37.971Z,1.89
2019-03-13T03:43:39.478Z,1.74
2019-03-13T03:46:15.630Z,1.60
2019-03-13T03:49:04.057Z,1.91
2019-03-13T03:51:51.924Z,1.80
2019-03-13T03:54:40.299Z,1.83
2019-03-13T03:57:28.659Z,1.72
2019-03-13T04:00:17.743Z,1.87
2019-03-13T04:03:06.248Z,1.61
2019-03-13T04:05:54.664Z,1.54
2019-03-13T04:08:43.055Z,1.42
2019-03-13T04:11:30.697Z,1.49
2019-03-13T04:14:18.420Z,1.47
2019-03-13T04:17:13.079Z,1.39
2019-03-13T04:20:01.329Z,1.63
2019-03-13T04:22:49.484Z,1.69
2019-03-13T04:25:37.553Z,1.76
2019-03-13T04:28:25.473Z,1.68
2019-03-13T04:31:13.104Z,1.42
2019-03-13T04:34:01.101Z,1.42
2019-03-13T04:36:49.213Z,1.47
2019-03-13T04:39:37.112Z,1.57
2019-03-13T04:42:25.227Z,1.72
2019-03-13T04:45:13.343Z,1.74
2019-03-13T04:48:01.339Z,1.53
2019-03-13T04:50:49.720Z,1.41
2019-03-13T04:53:38.225Z,1.50
2019-03-13T04:56:26.089Z,1.22
2019-03-13T04:59:14.083Z,0.98
2019-03-13T05:02:02.269Z,1.06
2019-03-13T05:04:50.722Z,1.02
2019-03-13T05:07:39.295Z,1.06
2019-03-13T05:10:27.952Z,1.15
2019-03-13T05:13:16.088Z,1.27
2019-03-13T05:16:05.264Z,1.29
2019-03-13T05:18:53.603Z,1.31
2019-03-13T05:21:42.963Z,1.22
2019-03-13T05:24:34.893Z,1.17
2019-03-13T05:27:22.703Z,1.27
2019-03-13T05:30:10.848Z,1.19
2019-03-13T05:32:59.068Z,1.21
2019-03-13T05:35:47.039Z,1.20
2019-03-13T05:38:35.364Z,1.33
2019-03-13T05:41:23.064Z,1.25
2019-03-13T05:44:11.516Z,1.43
2019-03-13T05:47:03.399Z,1.74
2019-03-13T05:49:51.852Z,1.98
2019-03-13T05:52:39.590Z,1.96
2019-03-13T05:55:27.955Z,1.81
2019-03-13T05:58:16.316Z,1.69
2019-03-13T06:01:05.432Z,1.63
2019-03-13T06:03:59.711Z,1.70
2019-03-13T06:06:48.166Z,1.51
2019-03-13T06:09:36.607Z,1.52
2019-03-13T06:12:25.012Z,1.66
2019-03-13T06:15:13.044Z,1.70
2019-03-13T06:18:01.194Z,1.56
2019-03-13T06:20:49.496Z,1.56
2019-03-13T06:23:37.595Z,1.61
2019-03-13T06:26:25.787Z,1.68
2019-03-13T06:29:14.125Z,1.65
2019-03-13T06:32:02.315Z,1.80
2019-03-13T06:34:50.824Z,1.93
2019-03-13T06:37:38.951Z,2.02
2019-03-13T06:40:27.351Z,2.09
2019-03-13T06:43:15.415Z,2.23
2019-03-13T06:46:03.272Z,2.09
2019-03-13T06:48:51.339Z,2.19
2019-03-13T06:51:39.792Z,2.25
2019-03-13T06:54:27.284Z,2.12
2019-03-13T06:57:15.571Z,2.16
2019-03-13T07:00:22.681Z,2.34
2019-03-13T07:03:27.947Z,2.57
2019-03-13T07:06:28.507Z,2.64
2019-03-13T07:09:21.602Z,2.94
2019-03-13T07:12:28.874Z,2.82
2019-03-13T07:15:38.741Z,2.96
2019-03-13T07:18:45.488Z,2.90
2019-03-13T07:22:10.511Z,3.16
2019-03-13T07:25:32.914Z,3.27
2019-03-13T07:29:07.440Z,3.58
2019-03-13T07:32:01.976Z,3.54
2019-03-13T07:35:09.473Z,3.31
2019-03-13T07:38:28.151Z,2.89
2019-03-13T07:41:24.785Z,3.13
2019-03-13T07:44:22.334Z,3.03
2019-03-13T07:47:41.457Z,3.10
2019-03-13T07:50:41.331Z,3.42
2019-03-13T07:53:44.179Z,3.48
2019-03-13T07:56:59.971Z,3.72
2019-03-13T08:00:13.168Z,3.59
2019-03-13T08:03:07.936Z,3.52
2019-03-13T08:06:15.132Z,3.54
2019-03-13T08:09:12.382Z,3.89
2019-03-13T08:12:19.918Z,3.93
2019-03-13T08:15:26.308Z,4.09
2019-03-13T08:18:52.108Z,4.27
2019-03-13T08:22:10.972Z,4.39
2019-03-13T08:25:18.934Z,4.55
2019-03-13T08:28:22.252Z,4.35
2019-03-13T08:31:42.296Z,4.37
2019-03-13T08:34:39.243Z,4.80
2019-03-13T08:37:36.396Z,4.65
2019-03-13T08:40:46.301Z,5.12
2019-03-13T08:43:51.901Z,5.20
2019-03-13T08:46:58.795Z,5.41
2019-03-13T08:50:04.895Z,5.37
2019-03-13T08:53:02.698Z,5.33
2019-03-13T08:56:09.585Z,5.10
2019-03-13T08:59:08.914Z,5.61
2019-03-13T09:02:04.264Z,5.14
2019-03-13T09:05:11.703Z,4.86
2019-03-13T09:08:30.315Z,4.80
2019-03-13T09:11:26.783Z,4.80
2019-03-13T09:14:21.109Z,5.09
2019-03-13T09:17:24.154Z,5.47
2019-03-13T09:20:32.072Z,5.48
2019-03-13T09:23:43.252Z,6.13
2019-03-13T09:26:48.482Z,6.17
2019-03-13T09:29:55.916Z,5.87
2019-03-13T09:33:08.460Z,6.15
2019-03-13T09:36:34.050Z,6.38
2019-03-13T09:39:41.037Z,6.69
2019-03-13T09:42:39.305Z,7.18
2019-03-13T09:45:48.932Z,7.01
2019-03-13T09:48:56.639Z,5.87
2019-03-13T09:52:04.218Z,5.90
2019-03-13T09:55:20.449Z,6.04
2019-03-13T09:58:39.525Z,6.09
2019-03-13T10:01:45.070Z,6.75
2019-03-13T10:04:55.396Z,6.43
2019-03-13T10:07:49.855Z,6.85
2019-03-13T10:11:11.932Z,7.73
2019-03-13T10:14:07.413Z,7.78
2019-03-13T10:17:32.103Z,7.52
2019-03-13T10:20:47.573Z,7.36
2019-03-13T10:24:03.517Z,7.62
2019-03-13T10:27:08.954Z,8.06
2019-03-13T10:30:05.898Z,7.36
2019-03-13T10:33:13.028Z,7.58
2019-03-13T10:36:13.509Z,8.04
2019-03-13T10:39:11.591Z,7.85
2019-03-13T10:42:10.451Z,7.95
2019-03-13T10:45:09.553Z,7.95
2019-03-13T10:48:05.831Z,8.04
2019-03-13T10:51:21.669Z,8.28
2019-03-13T10:54:25.335Z,8.67
2019-03-13T10:57:28.488Z,8.53
2019-03-13T11:00:27.634Z,8.94
2019-03-13T11:03:33.563Z,9.35
2019-03-13T11:06:38.527Z,9.09
2019-03-13T11:09:38.020Z,9.31
2019-03-13T11:12:59.413Z,8.63
2019-03-13T11:16:11.953Z,7.94
2019-03-13T11:19:18.563Z,7.93
2019-03-13T11:22:19.160Z,8.51
2019-03-13T11:25:25.527Z,8.81
2019-03-13T11:28:26.065Z,8.94
2019-03-13T11:31:31.323Z,8.54
2019-03-13T11:34:41.225Z,8.93
2019-03-13T11:37:46.710Z,9.09
2019-03-13T11:40:54.188Z,9.64
2019-03-13T11:44:03.499Z,9.70
2019-03-13T11:47:22.086Z,10.05
2019-03-13T11:50:37.956Z,9.75
2019-03-13T11:53:37.320Z,10.12
2019-03-13T11:56:52.896Z,10.88
2019-03-13T11:59:51.387Z,10.97
2019-03-13T12:02:53.894Z,10.69
2019-03-13T12:05:56.455Z,10.07
2019-03-13T12:09:21.623Z,10.24
2019-03-13T12:12:31.456Z,10.78
2019-03-13T12:15:43.820Z,10.84
2019-03-13T12:18:53.471Z,10.85
2019-03-13T12:25:24.996Z,11.36
2019-03-13T12:28:35.828Z,11.53
2019-03-13T12:31:57.861Z,11.90
2019-03-13T12:35:00.400Z,11.95
2019-03-13T12:37:58.584Z,11.60
2019-03-13T12:41:14.155Z,11.44
2019-03-13T12:44:20.544Z,11.41
2019-03-13T12:47:32.981Z,11.41
2019-03-13T12:50:39.643Z,10.54
2019-03-13T12:53:46.737Z,10.09
2019-03-13T12:57:00.254Z,9.98
2019-03-13T12:59:56.672Z,10.00
2019-03-13T13:03:03.612Z,9.88
2019-03-13T13:06:28.468Z,9.91
2019-03-13T13:09:41.622Z,9.87
2019-03-13T13:12:44.364Z,10.36
2019-03-13T13:15:57.271Z,10.53
2019-03-13T13:18:53.289Z,10.45
2019-03-13T13:21:23.448Z,10.10
2019-03-13T13:23:53.386Z,10.13
2019-03-13T13:26:23.227Z,10.31
2019-03-13T13:28:53.093Z,10.25
2019-03-13T13:31:22.997Z,10.11
2019-03-13T13:33:52.741Z,10.26
2019-03-13T13:36:22.519Z,9.62
2019-03-13T13:38:52.256Z,9.37
2019-03-13T13:41:21.987Z,9.03
2019-03-13T13:43:51.854Z,9.54
2019-03-13T13:46:31.624Z,9.69
2019-03-13T13:49:01.744Z,10.10
2019-03-13T13:51:32.894Z,10.45
2019-03-13T13:54:03.142Z,10.45
2019-03-13T13:56:32.917Z,10.27
2019-03-13T13:59:03.984Z,10.47
2019-03-13T14:01:34.853Z,10.43
2019-03-13T14:04:05.814Z,10.25
2019-03-13T14:06:36.833Z,10.51
2019-03-13T14:09:08.511Z,10.71
2019-03-13T14:11:39.396Z,10.47
2019-03-13T14:14:28.436Z,10.15
2019-03-13T14:16:59.348Z,10.25
2019-03-13T14:19:30.199Z,9.99
2019-03-13T14:22:01.159Z,10.31
2019-03-13T14:24:32.091Z,9.69
2019-03-13T14:27:14.031Z,9.61
2019-03-13T14:29:33.306Z,9.71
2019-03-13T14:32:03.173Z,9.87
2019-03-13T14:34:32.906Z,9.88
2019-03-13T14:37:02.637Z,8.99
2019-03-13T14:39:32.406Z,8.87
2019-03-13T14:42:02.149Z,9.23
2019-03-13T14:44:31.882Z,9.41
2019-03-13T14:47:01.733Z,8.91
2019-03-13T14:49:31.502Z,8.92
2019-03-13T14:52:01.200Z,8.70
2019-03-13T14:54:30.964Z,8.97
2019-03-13T14:57:00.728Z,9.32
2019-03-13T14:59:30.471Z,9.53
2019-03-13T15:02:00.231Z,9.39
2019-03-13T15:04:29.964Z,9.48
2019-03-13T15:06:59.715Z,9.39
2019-03-13T15:09:29.547Z,9.42
2019-03-13T15:11:59.293Z,9.49
2019-03-13T15:14:29.033Z,8.93
2019-03-13T15:16:58.810Z,9.01
2019-03-13T15:19:28.544Z,9.18
2019-03-13T15:21:58.274Z,9.22
2019-03-13T15:24:28.041Z,8.82
2019-03-13T15:26:57.768Z,8.71
2019-03-13T15:29:27.507Z,8.77
2019-03-13T15:31:57.324Z,8.90
2019-03-13T15:34:27.068Z,8.86
2019-03-13T15:36:56.804Z,8.51
2019-03-13T15:39:26.582Z,8.28
2019-03-13T15:41:56.320Z,8.68
2019-03-13T15:44:26.056Z,8.42
2019-03-13T15:46:55.829Z,8.28
2019-03-13T15:49:25.579Z,8.47
2019-03-13T15:51:55.325Z,8.47
2019-03-13T15:54:25.157Z,8.61
2019-03-13T15:56:55.021Z,8.68
2019-03-13T15:59:24.766Z,8.65
2019-03-13T16:01:54.655Z,8.54
2019-03-13T16:04:24.325Z,8.46
2019-03-13T16:06:56.861Z,8.32
2019-03-13T16:09:26.707Z,8.15
2019-03-13T16:11:56.433Z,8.20
2019-03-13T16:14:27.474Z,8.15
2019-03-13T16:16:58.366Z,8.17
2019-03-13T16:19:28.209Z,8.03
2019-03-13T16:21:57.950Z,7.99
2019-03-13T16:24:27.792Z,7.77
2019-03-13T16:26:57.512Z,7.64
2019-03-13T16:29:27.252Z,7.49
2019-03-13T16:31:57.232Z,7.36
2019-03-13T16:34:27.069Z,7.27
2019-03-13T16:36:57.236Z,7.31
2019-03-13T16:39:27.007Z,7.24
2019-03-13T16:41:56.760Z,7.04
2019-03-13T16:44:26.504Z,7.03
2019-03-13T16:46:56.339Z,7.12
2019-03-13T16:49:26.076Z,7.21
2019-03-13T16:51:55.805Z,7.22
2019-03-13T16:54:25.656Z,7.22
2019-03-13T16:56:55.383Z,7.20
2019-03-13T16:59:25.116Z,7.20
2019-03-13T17:01:54.903Z,7.12
2019-03-13T17:04:24.624Z,7.07
2019-03-13T17:06:54.672Z,7.06
2019-03-13T17:09:24.499Z,7.01
2019-03-13T17:11:54.239Z,6.94
2019-03-13T17:14:24.044Z,6.82
2019-03-13T17:16:53.851Z,6.75
2019-03-13T17:19:23.583Z,6.74
2019-03-13T17:21:53.324Z,6.81
2019-03-13T17:24:23.094Z,6.79
2019-03-13T17:26:52.845Z,6.71
2019-03-13T17:29:22.598Z,6.57
2019-03-13T17:31:52.532Z,6.66
2019-03-13T17:34:22.283Z,6.58
2019-03-13T17:36:52.037Z,6.54
2019-03-13T17:39:21.829Z,6.46
2019-03-13T17:41:51.560Z,6.73
2019-03-13T17:44:21.306Z,6.97
2019-03-13T17:46:51.121Z,7.00
2019-03-13T17:49:20.861Z,6.88
2019-03-13T17:51:50.598Z,6.85
2019-03-13T17:54:21.008Z,6.73
2019-03-13T17:56:50.889Z,6.50
2019-03-13T17:59:20.903Z,6.63
2019-03-13T18:01:50.693Z,6.37
2019-03-13T18:04:20.429Z,6.32
2019-03-13T18:06:50.165Z,6.18
2019-03-13T18:09:19.945Z,6.13
2019-03-13T18:11:49.824Z,6.09
2019-03-13T18:14:19.603Z,5.92
2019-03-13T18:16:49.456Z,5.94
2019-03-13T18:19:19.432Z,5.96
2019-03-13T18:21:53.576Z,5.93
2019-03-13T18:24:23.648Z,5.92
2019-03-13T18:26:53.375Z,5.98
2019-03-13T18:29:23.119Z,5.85
2019-03-13T18:31:54.120Z,5.85
2019-03-13T18:34:23.860Z,5.83
2019-03-13T18:36:54.365Z,5.88
2019-03-13T18:39:24.180Z,5.70
2019-03-13T18:41:54.603Z,5.28
2019-03-13T18:44:24.340Z,5.23
2019-03-13T18:46:54.223Z,4.91
2019-03-13T18:49:23.971Z,5.14
2019-03-13T18:51:53.706Z,5.27
2019-03-13T18:54:23.550Z,5.39
2019-03-13T18:56:53.269Z,5.54
2019-03-13T18:59:23.005Z,5.55
2019-03-13T19:01:52.788Z,5.53
2019-03-13T19:04:22.716Z,5.46
2019-03-13T19:06:52.451Z,5.31
2019-03-13T19:09:22.322Z,5.04
2019-03-13T19:11:52.369Z,5.10
2019-03-13T19:14:22.200Z,5.17
2019-03-13T19:16:52.027Z,5.07
2019-03-13T19:19:21.905Z,5.06
2019-03-13T19:21:51.648Z,5.21
2019-03-13T19:24:39.821Z,5.27
2019-03-13T19:27:27.692Z,5.19
2019-03-13T19:30:17.441Z,4.88
2019-03-13T19:33:05.636Z,5.04
2019-03-13T19:35:35.667Z,5.02
2019-03-13T19:38:05.807Z,5.17
2019-03-13T19:40:35.788Z,5.26
2019-03-13T19:43:05.557Z,5.28
2019-03-13T19:45:36.534Z,5.30
2019-03-13T19:48:06.285Z,5.06
2019-03-13T19:50:36.128Z,5.19
2019-03-13T19:53:05.913Z,5.23
2019-03-13T19:55:35.748Z,5.33
2019-03-13T19:58:05.699Z,5.22
2019-03-13T20:00:35.452Z,5.21
2019-03-13T20:03:05.695Z,5.27
2019-03-13T20:05:44.677Z,5.31
2019-03-13T20:08:06.951Z,5.33
2019-03-13T20:10:37.028Z,5.26
2019-03-13T20:13:07.049Z,5.21
2019-03-13T20:15:37.000Z,5.25
2019-03-13T20:18:07.184Z,5.23
2019-03-13T20:20:38.828Z,5.17
2019-03-13T20:23:09.870Z,5.24
2019-03-13T20:25:39.759Z,5.13
2019-03-13T20:28:10.030Z,4.85
2019-03-13T20:30:39.951Z,4.62
2019-03-13T20:33:10.506Z,4.68
2019-03-13T20:35:40.887Z,4.91
2019-03-13T20:38:10.895Z,5.05
2019-03-13T20:40:41.140Z,5.06
2019-03-13T20:43:11.374Z,4.93
2019-03-13T20:45:41.784Z,4.51
2019-03-13T20:48:11.925Z,4.57
2019-03-13T20:50:42.214Z,4.44
2019-03-13T20:53:12.088Z,4.55
2019-03-13T20:55:41.903Z,4.47
2019-03-13T20:58:11.916Z,4.73
2019-03-13T21:00:41.755Z,4.89
2019-03-13T21:03:11.683Z,4.95
2019-03-13T21:05:41.571Z,4.96
2019-03-13T21:08:11.850Z,5.02
2019-03-13T21:10:41.813Z,5.00
2019-03-13T21:13:11.727Z,5.02
2019-03-13T21:15:43.576Z,5.03
2019-03-13T21:18:13.224Z,5.02
2019-03-13T21:20:43.231Z,5.00
2019-03-13T21:23:13.482Z,4.91
2019-03-13T21:25:46.758Z,4.92
2019-03-13T21:28:16.639Z,4.94
2019-03-13T21:30:46.509Z,4.86
2019-03-13T21:33:18.231Z,4.82
2019-03-13T21:35:48.358Z,4.79
2019-03-13T21:38:19.930Z,4.76
2019-03-13T21:40:50.147Z,4.72
2019-03-13T21:43:19.971Z,4.76
2019-03-13T21:45:51.105Z,4.67
2019-03-13T21:48:20.960Z,4.69
2019-03-13T21:50:51.209Z,4.69
2019-03-13T21:53:20.975Z,4.68
2019-03-13T21:55:50.915Z,4.61
2019-03-13T21:58:22.029Z,4.48
2019-03-13T22:00:57.839Z,4.49
2019-03-13T22:03:32.308Z,4.45
2019-03-13T22:05:59.715Z,4.47
2019-03-13T22:08:29.573Z,4.41
2019-03-13T22:10:59.398Z,4.37
2019-03-13T22:13:29.559Z,4.42
2019-03-13T22:15:59.606Z,4.40
2019-03-13T22:18:29.702Z,4.41
2019-03-13T22:20:59.535Z,4.39
2019-03-13T22:23:29.801Z,4.33
2019-03-13T22:25:59.641Z,4.35
2019-03-13T22:28:29.463Z,4.38
2019-03-13T22:31:02.553Z,4.39
2019-03-13T22:33:30.768Z,4.31
2019-03-13T22:36:00.581Z,4.22
2019-03-13T22:38:30.523Z,4.10
2019-03-13T22:41:00.480Z,4.02
2019-03-13T22:43:30.264Z,4.06
2019-03-13T22:46:00.129Z,4.02
2019-03-13T22:48:29.952Z,3.91
2019-03-13T22:51:02.367Z,4.00
2019-03-13T22:53:31.376Z,4.04
2019-03-13T22:56:04.136Z,4.05
2019-03-13T22:58:34.299Z,3.96
2019-03-13T23:01:10.984Z,4.09
2019-03-13T23:03:41.034Z,4.09
2019-03-13T23:06:11.051Z,4.02
2019-03-13T23:08:40.967Z,3.92
2019-03-13T23:11:10.889Z,3.92
2019-03-13T23:13:40.720Z,3.90
2019-03-13T23:16:10.706Z,3.91
2019-03-13T23:18:40.519Z,3.92
2019-03-13T23:21:10.365Z,3.86
2019-03-13T23:23:40.219Z,3.85
2019-03-13T23:26:10.142Z,3.79
2019-03-13T23:28:46.540Z,3.75
2019-03-13T23:31:16.381Z,3.80
2019-03-13T23:33:46.215Z,3.85
2019-03-13T23:36:16.082Z,3.81
2019-03-13T23:38:46.281Z,3.85
2019-03-13T23:41:17.024Z,3.81
2019-03-13T23:43:46.956Z,3.72
2019-03-13T23:46:16.787Z,3.75
2019-03-13T23:48:46.600Z,3.61
2019-03-13T23:51:16.481Z,3.63
2019-03-13T23:53:46.296Z,3.56
2019-03-13T23:56:16.518Z,3.53
2019-03-13T23:58:46.370Z,3.47
